Time;durP1;ratioP1;P1;durP2;ratioP2;P2;SDS_P1;SDS_P2;PMS_P1;PMS_P2;Temp;Humidity;BMP_temperature;BMP_pressure;BME280_temperature;BME280_humidity;BME280_pressure;Samples;Min_cycle;Max_cycle;Signal;HPM_P1;HPM_P2
2022/04/04 00:00:08;;;;;;;1.48;1.38;;;3.10;99.90;;;;;;5049962;28;20489;-79
2022/04/04 00:02:34;;;;;;;1.80;1.67;;;3.10;99.90;;;;;;5051316;28;20055;-78
2022/04/04 00:05:01;;;;;;;1.75;1.45;;;3.10;99.90;;;;;;5067712;28;20048;-79
2022/04/04 00:07:27;;;;;;;3.70;2.58;;;3.10;99.90;;;;;;5051645;28;20032;-78
2022/04/04 00:09:53;;;;;;;;;;;3.20;99.90;;;;;;5071243;28;20052;-80
2022/04/04 00:12:18;;;;;;;1.98;1.77;;;3.30;99.90;;;;;;5047589;28;19925;-79
2022/04/04 00:14:44;;;;;;;2.08;1.63;;;3.30;99.90;;;;;;5071303;28;20040;-77
2022/04/04 00:17:11;;;;;;;3.17;1.70;;;3.30;99.90;;;;;;5043937;28;20075;-77
2022/04/04 00:19:36;;;;;;;2.55;2.03;;;3.40;99.90;;;;;;5054534;28;20084;-77
2022/04/04 00:22:03;;;;;;;1.10;0.90;;;3.30;99.90;;;;;;5045221;28;20141;-80
2022/04/04 00:24:28;;;;;;;;;;;3.30;99.90;;;;;;5070369;28;20047;-80
2022/04/04 00:26:54;;;;;;;1.45;1.17;;;3.30;99.90;;;;;;5069977;28;19924;-81
2022/04/04 00:29:20;;;;;;;2.97;2.08;;;3.30;99.90;;;;;;5052068;28;20119;-80
2022/04/04 00:31:46;;;;;;;6.20;1.40;;;3.30;99.90;;;;;;5044994;28;20072;-78
2022/04/04 00:34:11;;;;;;;2.25;1.45;;;3.30;99.90;;;;;;5052619;28;20105;-77
2022/04/04 00:36:39;;;;;;;10.57;1.42;;;3.40;99.90;;;;;;5043731;28;21710;-75
2022/04/04 00:39:04;;;;;;;1.30;1.20;;;3.30;99.90;;;;;;5047851;28;20041;-79
2022/04/04 00:41:30;;;;;;;1.42;1.23;;;3.30;99.90;;;;;;5039524;28;20043;-81
2022/04/04 00:43:57;;;;;;;1.10;1.00;;;3.20;99.90;;;;;;5054485;28;20079;-79
2022/04/04 00:46:23;;;;;;;0.90;0.90;;;3.20;99.90;;;;;;5037944;28;20048;-81
2022/04/04 00:48:49;;;;;;;0.85;0.85;;;3.20;99.90;;;;;;5072105;28;20098;-80
2022/04/04 00:51:15;;;;;;;1.92;1.50;;;3.20;99.90;;;;;;5061231;28;20035;-77
2022/04/04 00:53:41;;;;;;;1.42;1.35;;;3.30;99.90;;;;;;5052649;28;20112;-79
2022/04/04 00:56:07;;;;;;;;;;;3.40;99.90;;;;;;5038562;28;20037;-76
2022/04/04 00:58:36;;;;;;;1.33;1.23;;;3.30;99.90;;;;;;5061727;28;19927;-79
2022/04/04 01:01:03;;;;;;;1.27;1.20;;;3.30;99.90;;;;;;5054011;28;20174;-80
2022/04/04 01:03:28;;;;;;;;;;;3.30;99.90;;;;;;5054257;28;20036;-78
2022/04/04 01:05:57;;;;;;;1.00;1.00;;;3.30;99.90;;;;;;5070425;28;20348;-78
2022/04/04 01:08:23;;;;;;;3.58;2.25;;;3.30;99.90;;;;;;5069715;28;20040;-80
2022/04/04 01:10:50;;;;;;;3.35;2.25;;;3.30;99.90;;;;;;5070246;28;20404;-80
2022/04/04 01:13:16;;;;;;;0.77;0.77;;;3.40;99.90;;;;;;5069548;28;20040;-81
2022/04/04 01:15:41;;;;;;;;;;;3.60;99.90;;;;;;5053384;28;20044;-76
2022/04/04 01:18:08;;;;;;;4.40;2.75;;;3.40;99.90;;;;;;5054762;28;20368;-79
2022/04/04 01:20:36;;;;;;;1.13;1.02;;;3.40;99.90;;;;;;5069536;28;20048;-81
2022/04/04 01:23:02;;;;;;;0.80;0.80;;;3.50;99.90;;;;;;5053289;28;20484;-79
2022/04/04 01:25:31;;;;;;;1.73;1.58;;;3.50;99.90;;;;;;5053592;28;20032;-80
2022/04/04 01:27:59;;;;;;;1.33;1.23;;;3.50;99.90;;;;;;5053021;28;21634;-76
2022/04/04 01:30:26;;;;;;;1.45;1.35;;;3.50;99.90;;;;;;5070907;28;20453;-81
2022/04/04 01:32:52;;;;;;;1.55;1.33;;;3.50;99.90;;;;;;5036700;28;20144;-79
2022/04/04 01:35:19;;;;;;;;;;;3.60;99.90;;;;;;5070531;28;20043;-79
2022/04/04 01:37:46;;;;;;;1.52;1.42;;;3.60;99.90;;;;;;5053881;28;20101;-82
2022/04/04 01:40:12;;;;;;;3.83;2.60;;;3.60;99.90;;;;;;5046745;28;20131;-78
2022/04/04 01:42:38;;;;;;;;;;;4.20;99.90;;;;;;5070243;28;20684;-78
2022/04/04 01:45:06;;;;;;;1.70;1.60;;;3.80;99.90;;;;;;5053159;28;19924;-79
2022/04/04 01:47:32;;;;;;;2.05;1.73;;;3.70;99.90;;;;;;5053600;28;20115;-77
2022/04/04 01:49:58;;;;;;;2.97;1.95;;;3.70;99.90;;;;;;5036804;28;20426;-79
2022/04/04 01:52:24;;;;;;;4.35;2.72;;;3.80;99.90;;;;;;5068806;28;20048;-79
2022/04/04 01:54:49;;;;;;;2.90;2.63;;;3.90;99.90;;;;;;5052691;28;20038;-78
2022/04/04 01:57:15;;;;;;;2.80;2.53;;;3.80;99.90;;;;;;5070389;28;20375;-80
2022/04/04 01:59:41;;;;;;;3.67;2.20;;;3.90;99.90;;;;;;5069360;28;20044;-82
2022/04/04 02:02:07;;;;;;;8.63;4.18;;;3.90;99.90;;;;;;5052564;28;20377;-78
2022/04/04 02:04:32;;;;;;;3.85;3.08;;;3.90;99.90;;;;;;5069308;28;20032;-79
2022/04/04 02:06:59;;;;;;;3.25;2.83;;;4.00;99.90;;;;;;5028691;28;20087;-78
2022/04/04 02:09:25;;;;;;;4.78;2.97;;;3.90;99.90;;;;;;5043564;28;20128;-80
2022/04/04 02:11:51;;;;;;;1.80;1.70;;;4.00;99.90;;;;;;5067837;28;20482;-78
2022/04/04 02:14:17;;;;;;;4.97;2.38;;;4.00;99.90;;;;;;5052084;28;20044;-77
2022/04/04 02:16:44;;;;;;;1.55;1.45;;;4.00;99.90;;;;;;5067609;28;20059;-81
2022/04/04 02:19:10;;;;;;;2.53;2.08;;;4.10;99.90;;;;;;5069212;28;20500;-78
2022/04/04 02:21:42;;;;;;;2.72;2.50;;;4.20;99.90;;;;;;5068783;28;20045;-77
2022/04/04 02:24:08;;;;;;;7.35;5.00;;;4.00;99.90;;;;;;5068830;28;20185;-77
2022/04/04 02:26:34;;;;;;;3.35;2.75;;;4.00;99.90;;;;;;5069125;28;20055;-78
2022/04/04 02:29:00;;;;;;;3.97;3.17;;;4.00;99.90;;;;;;5070518;28;20040;-76
2022/04/04 02:31:26;;;;;;;2.30;2.08;;;4.20;99.90;;;;;;5068374;28;20059;-78
2022/04/04 02:33:52;;;;;;;5.15;3.33;;;4.00;99.90;;;;;;5052156;28;21643;-80
2022/04/04 02:36:20;;;;;;;6.10;3.72;;;4.00;99.90;;;;;;5068921;28;20047;-80
2022/04/04 02:38:46;;;;;;;1.95;1.75;;;4.10;99.90;;;;;;5067285;28;20033;-79
2022/04/04 02:41:12;;;;;;;10.77;5.15;;;4.00;99.90;;;;;;5070065;28;20095;-79
2022/04/04 02:43:39;;;;;;;;;;;4.00;99.90;;;;;;5068561;28;20043;-82
2022/04/04 02:46:05;;;;;;;1.08;1.05;;;4.10;99.90;;;;;;5051499;28;19921;-78
2022/04/04 02:48:32;;;;;;;3.40;3.10;;;4.10;99.90;;;;;;5067160;28;20048;-82
2022/04/04 02:50:58;;;;;;;1.42;1.33;;;4.20;99.90;;;;;;5044230;28;20072;-79
2022/04/04 02:53:23;;;;;;;1.55;1.35;;;4.10;99.90;;;;;;5068009;28;20068;-77
2022/04/04 02:58:34;;;;;;;4.82;3.10;;;4.00;99.90;;;;;;5036192;28;20146;-80
2022/04/04 03:00:59;;;;;;;;;;;4.10;99.90;;;;;;5045913;28;20068;-80
2022/04/04 03:03:25;;;;;;;2.75;2.55;;;4.10;99.90;;;;;;5051413;28;20013;-77
2022/04/04 03:05:51;;;;;;;10.07;5.95;;;4.40;99.90;;;;;;5073439;28;20070;-77
2022/04/04 03:08:17;;;;;;;4.68;4.18;;;4.20;99.90;;;;;;5041402;28;20106;-79
2022/04/04 03:10:43;;;;;;;2.45;2.15;;;4.20;99.90;;;;;;5067882;28;20063;-81
2022/04/04 03:13:09;;;;;;;2.67;2.47;;;4.30;99.90;;;;;;5052417;28;20040;-80
2022/04/04 03:15:35;;;;;;;5.63;3.03;;;4.30;99.90;;;;;;5068098;28;20040;-82
2022/04/04 03:18:03;;;;;;;3.75;3.33;;;4.30;99.90;;;;;;5068141;28;20397;-77
2022/04/04 03:20:31;;;;;;;8.88;4.63;;;4.40;99.90;;;;;;5051128;28;20097;-77
2022/04/04 03:22:58;;;;;;;5.30;4.00;;;4.40;99.90;;;;;;5067270;28;20045;-77
2022/04/04 03:25:25;;;;;;;2.92;2.67;;;4.40;99.90;;;;;;5052958;28;20036;-79
2022/04/04 03:27:52;;;;;;;4.05;3.65;;;4.50;99.90;;;;;;5067290;28;20119;-76
2022/04/04 03:30:20;;;;;;;6.55;3.15;;;4.50;99.90;;;;;;5084889;28;20044;-78
2022/04/04 03:32:47;;;;;;;2.35;2.15;;;4.50;99.90;;;;;;5067484;28;20097;-80
2022/04/04 03:35:17;;;;;;;4.35;3.40;;;4.60;99.90;;;;;;5068130;28;20485;-75
2022/04/04 03:37:44;;;;;;;9.30;3.63;;;4.50;99.90;;;;;;5050482;28;20370;-79
2022/04/04 03:40:14;;;;;;;10.75;4.60;;;4.70;99.90;;;;;;5051635;28;20040;-78
2022/04/04 03:42:41;;;;;;;3.20;2.88;;;4.60;99.90;;;;;;5051177;28;20045;-77
2022/04/04 03:45:07;;;;;;;3.40;3.08;;;4.60;99.90;;;;;;5052991;28;20060;-79
2022/04/04 03:47:33;;;;;;;7.15;3.67;;;4.60;99.90;;;;;;5066084;28;20050;-77
2022/04/04 03:49:59;;;;;;;5.15;3.72;;;4.70;99.90;;;;;;5051036;28;20024;-81
2022/04/04 03:52:26;;;;;;;4.95;3.25;;;4.70;99.90;;;;;;5067583;28;20052;-79
2022/04/04 03:54:52;;;;;;;14.35;7.88;;;4.60;99.90;;;;;;5067606;28;20549;-79
2022/04/04 03:57:18;;;;;;;5.88;3.65;;;4.60;99.90;;;;;;5042450;28;20132;-76
2022/04/04 03:59:44;;;;;;;5.72;2.80;;;4.60;99.90;;;;;;5067652;28;20131;-79
2022/04/04 04:02:11;;;;;;;3.90;2.40;;;4.60;99.90;;;;;;5051462;28;20040;-77
2022/04/04 04:04:38;;;;;;;4.35;3.58;;;4.50;99.90;;;;;;5034707;28;20032;-76
2022/04/04 04:07:05;;;;;;;5.50;2.10;;;4.50;99.90;;;;;;5066059;28;20052;-78
2022/04/04 04:09:32;;;;;;;6.07;2.92;;;4.50;99.90;;;;;;5033135;28;20110;-75
2022/04/04 04:11:57;;;;;;;4.97;3.50;;;4.50;99.90;;;;;;5033976;28;20048;-80
2022/04/04 04:14:25;;;;;;;3.45;3.15;;;4.50;99.90;;;;;;5057579;28;20041;-77
2022/04/04 04:16:50;;;;;;;5.25;2.42;;;4.50;99.90;;;;;;5051693;28;20075;-77
2022/04/04 04:22:00;;;;;;;10.18;6.18;;;4.50;99.90;;;;;;5066315;28;20047;-79
2022/04/04 04:24:26;;;;;;;7.88;4.05;;;4.50;99.90;;;;;;5066264;28;20036;-77
2022/04/04 04:26:53;;;;;;;6.18;2.90;;;4.50;99.90;;;;;;5048878;28;20173;-79
2022/04/04 04:29:20;;;;;;;14.70;8.43;;;4.60;99.90;;;;;;5069347;28;20098;-80
2022/04/04 04:31:47;;;;;;;5.70;4.68;;;4.60;99.90;;;;;;5066586;28;20120;-76
2022/04/04 04:34:13;;;;;;;13.20;8.07;;;4.50;99.90;;;;;;5067594;28;20111;-78
2022/04/04 04:36:39;;;;;;;4.00;3.08;;;4.50;99.90;;;;;;5034064;28;20813;-76
2022/04/04 04:39:09;;;;;;;10.95;4.30;;;4.50;99.90;;;;;;5050819;28;20044;-75
2022/04/04 04:41:35;;;;;;;6.65;3.72;;;4.50;99.90;;;;;;5052093;28;20075;-78
2022/04/04 04:44:03;;;;;;;7.95;4.25;;;4.60;99.90;;;;;;5067043;28;20209;-80
2022/04/04 04:46:33;;;;;;;2.13;1.92;;;4.70;99.90;;;;;;5048192;28;20056;-78
2022/04/04 04:48:59;;;;;;;6.68;4.18;;;4.50;99.90;;;;;;5050331;28;20040;-76
2022/04/04 04:51:25;;;;;;;4.05;3.33;;;4.50;99.90;;;;;;5033446;28;20037;-78
2022/04/04 04:53:51;;;;;;;11.13;6.20;;;4.60;99.90;;;;;;5067036;28;20123;-80
2022/04/04 04:56:18;;;;;;;7.47;4.78;;;4.60;99.90;;;;;;5054140;28;20174;-78
2022/04/04 04:58:44;;;;;;;3.97;2.83;;;4.60;99.90;;;;;;5053727;28;20054;-78
2022/04/04 05:01:10;;;;;;;11.48;7.15;;;4.70;99.90;;;;;;5053583;28;20036;-76
2022/04/04 05:03:37;;;;;;;6.28;3.92;;;4.70;99.90;;;;;;5070344;28;20504;-79
2022/04/04 05:06:03;;;;;;;13.07;3.78;;;4.70;99.90;;;;;;5037739;28;20120;-78
2022/04/04 05:08:30;;;;;;;3.13;2.47;;;4.60;99.90;;;;;;5059322;28;20105;-77
2022/04/04 05:11:00;;;;;;;3.83;2.92;;;4.60;99.90;;;;;;5045396;28;20053;-76
2022/04/04 05:13:26;;;;;;;;;;;4.70;99.90;;;;;;5036894;28;20041;-76
2022/04/04 05:15:54;;;;;;;5.93;3.67;;;4.60;99.90;;;;;;5068940;28;19935;-77
2022/04/04 05:18:21;;;;;;;18.38;9.48;;;4.60;99.90;;;;;;5068171;28;20376;-76
2022/04/04 05:20:46;;;;;;;;;;;4.60;99.90;;;;;;5035642;28;20151;-77
2022/04/04 05:23:13;;;;;;;4.40;3.10;;;4.60;99.90;;;;;;5068967;28;19999;-77
2022/04/04 05:25:39;;;;;;;;;;;4.70;99.90;;;;;;5053484;28;20102;-76
2022/04/04 05:28:07;;;;;;;5.13;2.88;;;4.70;99.90;;;;;;5053818;28;19939;-76
2022/04/04 05:30:34;;;;;;;11.57;7.53;;;4.60;99.90;;;;;;5036683;28;20485;-75
2022/04/04 05:33:00;;;;;;;4.00;3.38;;;4.60;99.90;;;;;;5047512;28;20052;-75
2022/04/04 05:35:25;;;;;;;;;;;4.60;99.90;;;;;;5070245;28;20043;-78
2022/04/04 05:37:55;;;;;;;11.18;8.30;;;4.60;99.90;;;;;;5052099;28;19924;-77
2022/04/04 05:40:29;;;;;;;4.38;3.05;;;4.70;99.90;;;;;;5069516;28;20067;-78
2022/04/04 05:42:55;;;;;;;7.65;3.38;;;4.70;99.90;;;;;;5071383;28;20405;-79
2022/04/04 05:45:21;;;;;;;7.38;4.15;;;4.60;99.90;;;;;;5052731;28;20186;-75
2022/04/04 05:47:47;;;;;;;4.10;3.67;;;4.70;99.90;;;;;;5052317;28;20113;-77
2022/04/04 05:50:13;;;;;;;10.70;7.93;;;4.60;99.90;;;;;;5046990;28;20075;-78
2022/04/04 05:52:39;;;;;;;13.43;9.48;;;4.50;99.90;;;;;;5061251;28;20220;-78
2022/04/04 05:55:06;;;;;;;10.15;6.90;;;4.60;99.90;;;;;;5036563;28;20829;-80
2022/04/04 05:57:36;;;;;;;9.50;6.43;;;4.60;99.90;;;;;;5073025;28;20041;-74
2022/04/04 06:00:10;;;;;;;18.48;3.92;;;4.50;99.90;;;;;;5054991;28;20105;-77
2022/04/04 06:02:38;;;;;;;6.40;4.47;;;4.40;99.90;;;;;;5070859;28;20082;-75
2022/04/04 06:05:06;;;;;;;5.22;4.30;;;4.40;99.90;;;;;;5054134;28;20068;-74
2022/04/04 06:07:33;;;;;;;2.22;1.75;;;4.30;99.90;;;;;;5074129;28;20047;-76
2022/04/04 06:09:58;;;;;;;3.92;2.92;;;4.30;99.90;;;;;;5053906;28;20088;-77
2022/04/04 06:12:24;;;;;;;1.63;1.45;;;4.30;99.90;;;;;;5037375;28;20149;-74
2022/04/04 06:14:50;;;;;;;8.43;5.90;;;4.30;99.90;;;;;;5051707;28;20174;-76
2022/04/04 06:17:16;;;;;;;4.97;3.22;;;4.20;99.90;;;;;;5074199;28;20039;-76
2022/04/04 06:19:43;;;;;;;3.45;2.47;;;4.30;99.90;;;;;;5078655;28;20044;-75
2022/04/04 06:22:09;;;;;;;5.13;4.05;;;4.10;99.90;;;;;;5076209;28;20115;-79
2022/04/04 06:24:35;;;;;;;4.05;3.05;;;4.10;99.90;;;;;;5067558;28;20161;-75
2022/04/04 06:27:01;;;;;;;;;;;4.00;99.90;;;;;;5069466;28;20127;-75
2022/04/04 06:29:27;;;;;;;6.20;4.60;;;4.00;99.90;;;;;;5068719;28;20574;-78
2022/04/04 06:31:54;;;;;;;2.60;1.83;;;4.00;99.90;;;;;;5037141;28;20036;-81
2022/04/04 06:34:20;;;;;;;1.10;1.00;;;3.90;99.90;;;;;;5048570;28;20216;-78
2022/04/04 06:36:47;;;;;;;11.85;3.72;;;4.00;99.90;;;;;;5041468;28;20927;-80
2022/04/04 06:39:19;;;;;;;3.92;2.85;;;3.90;99.90;;;;;;5029904;28;20037;-81
2022/04/04 06:41:45;;;;;;;5.35;2.85;;;4.10;99.90;;;;;;5050276;28;20047;-81
2022/04/04 06:44:13;;;;;;;2.80;1.88;;;4.00;99.90;;;;;;5049484;28;20037;-80
2022/04/04 06:46:39;;;;;;;3.22;2.20;;;4.00;99.90;;;;;;5033764;28;20374;-79
2022/04/04 06:49:06;;;;;;;6.10;4.43;;;4.00;99.90;;;;;;5068278;28;20101;-83
2022/04/04 06:51:33;;;;;;;2.20;2.00;;;4.00;99.90;;;;;;5048413;28;20112;-82
2022/04/04 06:54:05;;;;;;;2.33;1.92;;;4.00;99.90;;;;;;5051183;28;20816;-79
2022/04/04 06:56:34;;;;;;;3.42;2.50;;;4.00;99.90;;;;;;5044915;28;20484;-77
2022/04/04 06:59:03;;;;;;;8.65;3.47;;;4.20;99.90;;;;;;5027121;28;20140;-80
2022/04/04 07:01:31;;;;;;;6.72;4.00;;;4.10;99.90;;;;;;5049091;28;20044;-79
2022/04/04 07:03:58;;;;;;;2.75;1.55;;;4.20;99.90;;;;;;5049788;28;20098;-79
2022/04/04 07:06:25;;;;;;;1.60;1.45;;;4.10;99.90;;;;;;5031783;28;20033;-77
2022/04/04 07:08:52;;;;;;;2.03;1.70;;;4.10;99.90;;;;;;5050091;28;20464;-80
2022/04/04 07:11:18;;;;;;;2.65;2.15;;;4.10;99.90;;;;;;5051884;28;20048;-81
2022/04/04 07:13:44;;;;;;;1.75;1.65;;;4.20;99.90;;;;;;5034897;28;20070;-82
2022/04/04 07:16:10;;;;;;;1.02;1.00;;;4.20;99.90;;;;;;5069635;28;20123;-83
2022/04/04 07:18:36;;;;;;;8.27;6.22;;;5.20;99.90;;;;;;5047768;28;20788;-82
2022/04/04 07:21:02;;;;;;;4.50;2.85;;;4.30;99.90;;;;;;5036375;28;20125;-78
2022/04/04 07:23:27;;;;;;;2.65;2.15;;;4.30;99.90;;;;;;5056843;28;20051;-80
2022/04/04 07:25:53;;;;;;;3.40;2.30;;;4.40;99.90;;;;;;5052101;28;20579;-79
2022/04/04 07:28:21;;;;;;;5.65;4.47;;;4.40;99.90;;;;;;5066312;28;20036;-77
2022/04/04 07:30:47;;;;;;;4.35;2.17;;;4.40;99.90;;;;;;5049289;28;20042;-79
2022/04/04 07:33:18;;;;;;;5.85;4.05;;;4.50;99.90;;;;;;5049578;28;20052;-77
2022/04/04 07:35:45;;;;;;;11.93;8.57;;;4.50;99.90;;;;;;5047976;28;20041;-82
2022/04/04 07:38:11;;;;;;;7.30;3.65;;;4.60;99.90;;;;;;5051118;28;20102;-77
2022/04/04 07:40:37;;;;;;;;;;;4.60;99.90;;;;;;5057965;28;20043;-80
2022/04/04 07:43:03;;;;;;;7.80;5.85;;;4.60;99.90;;;;;;5071801;28;19920;-76
2022/04/04 07:45:30;;;;;;;4.28;3.88;;;4.70;99.90;;;;;;5071576;28;20068;-78
2022/04/04 07:47:58;;;;;;;1.65;1.52;;;4.70;99.90;;;;;;5050203;28;20117;-81
2022/04/04 07:50:24;;;;;;;11.48;7.10;;;4.80;99.90;;;;;;5035535;28;20485;-80
2022/04/04 07:52:50;;;;;;;10.05;5.15;;;4.80;99.90;;;;;;5058117;28;20059;-78
2022/04/04 07:55:16;;;;;;;6.32;3.67;;;4.80;99.90;;;;;;5065205;28;20115;-80
2022/04/04 07:57:42;;;;;;;7.03;4.68;;;4.80;99.90;;;;;;5035502;28;20045;-78
2022/04/04 08:00:14;;;;;;;;;;;5.30;99.90;;;;;;5071210;28;20101;-79
2022/04/04 08:02:41;;;;;;;5.65;3.67;;;4.90;99.90;;;;;;5071170;28;20333;-81
2022/04/04 08:05:08;;;;;;;7.15;4.85;;;4.90;99.90;;;;;;5066916;28;20511;-80
2022/04/04 08:07:36;;;;;;;8.27;4.40;;;5.00;99.90;;;;;;5071592;28;20036;-79
2022/04/04 08:10:02;;;;;;;3.75;2.63;;;5.00;99.90;;;;;;5052193;28;20048;-81
2022/04/04 08:12:29;;;;;;;8.63;4.50;;;5.00;99.90;;;;;;5052236;28;20056;-78
2022/04/04 08:14:55;;;;;;;8.32;4.32;;;5.00;99.90;;;;;;5058413;28;20037;-81
2022/04/04 08:17:21;;;;;;;2.53;2.17;;;5.10;99.90;;;;;;5046722;28;20041;-81
2022/04/04 08:19:46;;;;;;;5.15;4.00;;;5.10;99.90;;;;;;5054933;28;20052;-79
2022/04/04 08:22:12;;;;;;;3.80;2.50;;;5.20;99.90;;;;;;5017768;28;20041;-80
2022/04/04 08:24:40;;;;;;;9.60;5.78;;;5.20;99.90;;;;;;5033917;28;20037;-77
2022/04/04 08:27:06;;;;;;;2.60;1.75;;;5.30;99.90;;;;;;5037852;28;20040;-79
2022/04/04 08:29:31;;;;;;;2.65;2.45;;;5.20;99.90;;;;;;5026277;28;20063;-78
2022/04/04 08:31:57;;;;;;;4.50;3.42;;;5.20;99.90;;;;;;5053137;28;20492;-78
2022/04/04 08:34:23;;;;;;;3.13;2.35;;;5.30;99.90;;;;;;5038162;28;20079;-78
2022/04/04 08:36:49;;;;;;;7.28;4.40;;;5.30;99.90;;;;;;5073463;28;20129;-76
2022/04/04 08:39:14;;;;;;;7.80;4.20;;;5.30;99.90;;;;;;5020204;28;20041;-79
2022/04/04 08:41:41;;;;;;;4.20;2.70;;;5.30;99.90;;;;;;5058381;28;20041;-82
2022/04/04 08:44:07;;;;;;;4.00;2.67;;;5.40;99.90;;;;;;5054281;28;20485;-79
2022/04/04 08:46:33;;;;;;;7.68;3.50;;;5.70;99.90;;;;;;5053917;28;20036;-79
2022/04/04 08:49:05;;;;;;;3.10;2.45;;;5.50;99.90;;;;;;5053743;28;20142;-80
2022/04/04 08:51:37;;;;;;;3.35;2.30;;;5.50;99.90;;;;;;5059226;28;20036;-78
2022/04/04 08:54:05;;;;;;;2.58;1.63;;;5.50;99.90;;;;;;5066625;28;20120;-78
2022/04/04 08:56:32;;;;;;;4.18;2.10;;;5.40;99.90;;;;;;5053876;28;20072;-80
2022/04/04 08:58:58;;;;;;;2.05;1.67;;;5.40;99.90;;;;;;5052621;28;20084;-78
2022/04/04 09:01:25;;;;;;;4.25;2.38;;;5.60;99.90;;;;;;5019507;28;20115;-79
2022/04/04 09:04:11;;;;;;;2.47;1.92;;;5.50;99.90;;;;;;5048749;28;20433;-76
2022/04/04 09:06:51;;;;;;;6.05;3.38;;;5.50;99.90;;;;;;5042145;28;20101;-76
2022/04/04 09:09:25;;;;;;;2.85;1.88;;;5.50;99.90;;;;;;5052350;28;20041;-79
2022/04/04 09:12:10;;;;;;;5.07;4.10;;;5.50;99.90;;;;;;5066505;28;20061;-78
2022/04/04 09:14:45;;;;;;;6.38;3.03;;;5.50;99.90;;;;;;5054696;28;20072;-79
2022/04/04 09:17:12;;;;;;;2.28;1.70;;;5.60;99.90;;;;;;5071710;28;20044;-77
2022/04/04 09:19:39;;;;;;;1.30;1.20;;;5.60;99.90;;;;;;5045439;28;20045;-80
2022/04/04 09:22:07;;;;;;;2.05;1.88;;;5.60;99.90;;;;;;5030507;28;20117;-78
2022/04/04 09:24:47;;;;;;;1.85;1.75;;;5.60;99.90;;;;;;5068556;28;20163;-81
2022/04/04 09:27:18;;;;;;;2.90;2.33;;;5.60;99.90;;;;;;5071109;28;20431;-79
2022/04/04 09:29:45;;;;;;;3.30;2.17;;;5.70;99.90;;;;;;5055174;28;20037;-81
2022/04/04 09:32:14;;;;;;;3.15;1.98;;;5.70;99.90;;;;;;5052518;28;20067;-78
2022/04/04 09:35:00;;;;;;;3.85;1.80;;;5.70;99.90;;;;;;5070264;28;20045;-77
2022/04/04 09:37:29;;;;;;;1.55;1.38;;;5.70;99.90;;;;;;5052054;28;20037;-79
2022/04/04 09:40:24;;;;;;;2.35;1.77;;;5.80;99.90;;;;;;5050121;28;20044;-78
2022/04/04 09:42:51;;;;;;;1.40;1.20;;;5.80;99.90;;;;;;5053066;28;20039;-79
2022/04/04 09:45:19;;;;;;;9.50;2.15;;;5.80;99.90;;;;;;5054158;28;20040;-78
2022/04/04 09:47:52;;;;;;;2.35;1.73;;;5.80;99.90;;;;;;5078234;28;20036;-77
2022/04/04 09:50:43;;;;;;;2.83;2.38;;;5.90;99.90;;;;;;5052584;28;20045;-77
2022/04/04 09:53:23;;;;;;;1.77;1.33;;;5.90;99.90;;;;;;5048979;28;20040;-78
2022/04/04 09:55:57;;;;;;;2.17;1.98;;;6.00;99.90;;;;;;5084362;28;20044;-79
2022/04/04 09:58:28;;;;;;;3.25;2.33;;;6.00;99.90;;;;;;5054946;28;20127;-80
2022/04/04 10:00:55;;;;;;;2.38;1.83;;;6.00;99.90;;;;;;5036423;28;20037;-81
2022/04/04 10:03:22;;;;;;;2.40;2.20;;;6.00;99.90;;;;;;5056526;28;20128;-79
2022/04/04 10:05:56;;;;;;;2.60;1.73;;;6.00;99.90;;;;;;5070832;28;20123;-81
2022/04/04 10:08:25;;;;;;;3.75;1.83;;;6.00;99.90;;;;;;5053630;28;20102;-80
2022/04/04 10:10:52;;;;;;;4.38;2.28;;;6.10;99.90;;;;;;5035649;28;20143;-79
2022/04/04 10:13:20;;;;;;;2.28;1.60;;;6.10;99.90;;;;;;5038978;28;20054;-79
2022/04/04 10:15:48;;;;;;;3.45;2.60;;;6.10;99.90;;;;;;5070655;28;20044;-80
2022/04/04 10:18:15;;;;;;;0.75;0.75;;;6.10;99.90;;;;;;5041012;28;20104;-79
2022/04/04 10:20:42;;;;;;;2.83;1.20;;;6.20;99.90;;;;;;5066628;28;20046;-80
2022/04/04 10:23:16;;;;;;;5.22;2.05;;;6.20;99.90;;;;;;5063916;28;20098;-81
2022/04/04 10:25:42;;;;;;;3.08;2.28;;;6.20;99.90;;;;;;5061204;28;20033;-77
2022/04/04 10:28:08;;;;;;;2.88;1.70;;;6.30;99.90;;;;;;5032069;28;20128;-80
2022/04/04 10:30:40;;;;;;;3.10;2.15;;;6.30;99.90;;;;;;5044953;28;20116;-80
2022/04/04 10:33:19;;;;;;;0.98;0.98;;;6.30;99.90;;;;;;5038732;28;20063;-80
2022/04/04 10:36:08;;;;;;;0.85;0.85;;;6.30;99.90;;;;;;5049271;28;20135;-83
2022/04/04 10:38:37;;;;;;;0.85;0.82;;;6.30;99.90;;;;;;5069619;28;20501;-81
2022/04/04 10:41:09;;;;;;;0.75;0.75;;;6.30;99.90;;;;;;5058277;28;20044;-81
2022/04/04 10:43:38;;;;;;;2.70;1.23;;;6.30;99.90;;;;;;5057557;28;20037;-80
2022/04/04 10:46:09;;;;;;;4.18;2.38;;;6.40;99.90;;;;;;5054064;28;20409;-79
2022/04/04 10:48:41;;;;;;;1.20;1.02;;;6.40;99.90;;;;;;5053598;28;20032;-80
2022/04/04 10:51:20;;;;;;;1.00;0.90;;;6.40;99.90;;;;;;5058255;28;20098;-83
2022/04/04 10:53:54;;;;;;;2.30;1.40;;;6.40;99.90;;;;;;5069883;28;20052;-79
2022/04/04 10:56:22;;;;;;;1.50;1.20;;;6.40;99.90;;;;;;5048697;28;20041;-80
2022/04/04 10:58:53;;;;;;;4.00;2.00;;;6.50;99.90;;;;;;5055096;28;20048;-78
2022/04/04 11:01:21;;;;;;;1.10;0.95;;;6.50;99.90;;;;;;5063706;28;20671;-79
2022/04/04 11:03:58;;;;;;;2.38;1.65;;;6.50;99.90;;;;;;5069238;28;20354;-83
2022/04/04 11:09:32;;;;;;;1.02;0.85;;;6.60;99.90;;;;;;5069166;28;20362;-79
2022/04/04 11:12:01;;;;;;;1.10;1.00;;;6.60;99.90;;;;;;5081817;28;20056;-80
2022/04/04 11:14:26;;;;;;;2.58;1.48;;;6.60;99.90;;;;;;5069639;28;20044;-78
2022/04/04 11:20:04;;;;;;;1.55;1.45;;;6.70;99.90;;;;;;5080183;28;20044;-77
2022/04/04 11:22:41;;;;;;;0.80;0.80;;;6.70;99.90;;;;;;5058262;28;20044;-79
2022/04/04 11:25:12;;;;;;;2.03;1.00;;;6.70;99.90;;;;;;5068874;28;20051;-82
2022/04/04 11:27:40;;;;;;;1.15;1.05;;;6.70;99.90;;;;;;5052399;28;20158;-79
2022/04/04 11:30:09;;;;;;;0.68;0.68;;;6.80;99.90;;;;;;5032866;28;20041;-81
2022/04/04 11:32:38;;;;;;;0.82;0.73;;;6.80;99.90;;;;;;5060095;28;20174;-79
2022/04/04 11:35:09;;;;;;;1.38;1.20;;;6.80;99.90;;;;;;5067752;28;20603;-76
2022/04/04 11:37:59;;;;;;;1.83;1.30;;;6.80;99.90;;;;;;5065494;28;20389;-80
2022/04/04 11:40:34;;;;;;;1.45;1.10;;;6.80;99.90;;;;;;5081172;28;20090;-76
2022/04/04 11:43:11;;;;;;;1.08;0.88;;;6.90;99.90;;;;;;5071454;28;20135;-79
2022/04/04 11:45:39;;;;;;;1.20;1.00;;;7.20;99.90;;;;;;5054979;28;20062;-77
2022/04/04 11:48:11;;;;;;;1.95;1.23;;;7.00;99.90;;;;;;5054338;28;20048;-77
2022/04/04 11:50:38;;;;;;;1.17;0.90;;;7.00;99.90;;;;;;5045415;28;20143;-79
2022/04/04 11:53:12;;;;;;;1.00;0.90;;;7.00;99.90;;;;;;5068772;28;20036;-81
2022/04/04 11:55:41;;;;;;;0.80;0.80;;;7.10;99.90;;;;;;5084511;28;20127;-82
2022/04/04 11:58:15;;;;;;;0.80;0.73;;;7.10;99.90;;;;;;5071581;28;20074;-78
2022/04/04 12:00:47;;;;;;;0.57;0.57;;;7.10;99.90;;;;;;5042187;28;20040;-79
2022/04/04 12:03:16;;;;;;;1.52;0.80;;;7.10;99.90;;;;;;5053512;28;20048;-81
2022/04/04 12:05:43;;;;;;;0.55;0.55;;;7.10;99.90;;;;;;5059834;28;20040;-78
2022/04/04 12:08:11;;;;;;;4.05;1.20;;;7.20;99.90;;;;;;5072410;28;20068;-79
2022/04/04 12:10:37;;;;;;;0.73;0.73;;;7.20;99.90;;;;;;5019014;28;20561;-79
2022/04/04 12:13:17;;;;;;;1.52;1.00;;;7.20;99.90;;;;;;5068577;28;20466;-85
2022/04/04 12:15:44;;;;;;;0.50;0.50;;;7.20;99.90;;;;;;5041026;28;20037;-80
2022/04/04 12:18:11;;;;;;;1.20;0.98;;;7.20;99.90;;;;;;5061026;28;20388;-78
2022/04/04 12:20:37;;;;;;;0.88;0.82;;;7.30;99.90;;;;;;5057506;28;20032;-78
2022/04/04 12:25:55;;;;;;;1.98;1.30;;;7.30;99.90;;;;;;5066035;28;20044;-81
2022/04/04 12:28:24;;;;;;;1.13;1.00;;;7.40;99.90;;;;;;5051539;28;20131;-79
2022/04/04 12:30:49;;;;;;;2.05;1.27;;;7.40;99.90;;;;;;5069319;28;20044;-77
2022/04/04 12:33:16;;;;;;;1.02;0.93;;;7.50;99.90;;;;;;5059891;28;20037;-80
2022/04/04 12:35:48;;;;;;;0.95;0.80;;;7.40;99.90;;;;;;5070095;28;20078;-81
2022/04/04 12:38:26;;;;;;;1.73;1.00;;;7.50;99.90;;;;;;5041767;28;20056;-82
2022/04/04 12:41:08;;;;;;;0.40;0.40;;;7.50;99.90;;;;;;5076184;28;20538;-77
2022/04/04 12:43:42;;;;;;;0.60;0.60;;;7.50;99.90;;;;;;5055592;28;20041;-81
2022/04/04 12:46:25;;;;;;;0.85;0.82;;;7.60;99.90;;;;;;5079146;28;20085;-80
2022/04/04 12:48:51;;;;;;;0.98;0.93;;;7.60;99.90;;;;;;5052400;28;20350;-80
2022/04/04 12:51:26;;;;;;;;;;;7.70;99.90;;;;;;5048712;28;20752;-84
2022/04/04 12:53:54;;;;;;;1.02;0.80;;;7.80;99.90;;;;;;5056953;28;20477;-83
2022/04/04 12:56:20;;;;;;;0.85;0.80;;;7.80;99.90;;;;;;5017097;28;20091;-81
2022/04/04 12:59:05;;;;;;;1.42;1.17;;;7.80;99.90;;;;;;5035118;28;20048;-79
2022/04/04 13:01:32;;;;;;;0.50;0.50;;;7.80;99.90;;;;;;5066004;28;20058;-82
2022/04/04 13:03:59;;;;;;;2.40;0.88;;;7.80;99.90;;;;;;5047589;28;20128;-79
2022/04/04 13:06:30;;;;;;;1.40;0.98;;;7.90;99.90;;;;;;5069992;28;20039;-80
2022/04/04 13:09:01;;;;;;;0.73;0.73;;;8.00;99.90;;;;;;5052089;28;20166;-77
2022/04/04 13:11:30;;;;;;;3.60;1.45;;;8.10;99.90;;;;;;5064000;28;20061;-82
2022/04/04 13:14:07;;;;;;;0.98;0.80;;;8.20;99.90;;;;;;5052043;28;20487;-81
2022/04/04 13:16:35;;;;;;;1.40;1.00;;;8.20;99.90;;;;;;5050949;28;20490;-80
2022/04/04 13:19:02;;;;;;;0.75;0.75;;;8.20;99.90;;;;;;5059968;28;20480;-80